sensor_id;sensor_type;location;lat;lon;timestamp;pressure;altitude;pressure_sealevel;temperature;humidity
64616;BME280;51027;42.162;24.754;2023-05-10T00:01:55;100211.19;;;10.93;100.00
64616;BME280;51027;42.162;24.754;2023-05-10T00:04:21;100204.13;;;10.94;100.00
64616;BME280;51027;42.162;24.754;2023-05-10T00:06:46;100224.81;;;11.06;100.00
64616;BME280;51027;42.162;24.754;2023-05-10T00:09:12;100220.50;;;11.04;100.00
64616;BME280;51027;42.162;24.754;2023-05-10T00:11:37;100203.28;;;10.93;100.00
64616;BME280;51027;42.162;24.754;2023-05-10T00:14:03;100210.28;;;10.93;100.00
64616;BME280;51027;42.162;24.754;2023-05-10T00:16:28;100212.75;;;10.99;100.00
64616;BME280;51027;42.162;24.754;2023-05-10T00:18:54;100222.25;;;11.03;100.00
64616;BME280;51027;42.162;24.754;2023-05-10T00:21:19;100222.19;;;11.06;100.00
64616;BME280;51027;42.162;24.754;2023-05-10T00:23:45;100222.06;;;11.09;100.00
64616;BME280;51027;42.162;24.754;2023-05-10T00:26:10;100215.28;;;11.02;100.00
64616;BME280;51027;42.162;24.754;2023-05-10T00:28:36;100195.63;;;10.86;100.00
64616;BME280;51027;42.162;24.754;2023-05-10T00:31:01;100223.41;;;10.96;100.00
64616;BME280;51027;42.162;24.754;2023-05-10T00:33:27;100216.69;;;10.86;100.00
64616;BME280;51027;42.162;24.754;2023-05-10T00:35:52;100213.91;;;10.90;100.00
64616;BME280;51027;42.162;24.754;2023-05-10T00:38:18;100212.06;;;10.92;100.00
64616;BME280;51027;42.162;24.754;2023-05-10T00:40:43;100208.69;;;10.89;100.00
64616;BME280;51027;42.162;24.754;2023-05-10T00:43:09;100208.44;;;10.68;100.00
64616;BME280;51027;42.162;24.754;2023-05-10T00:45:35;100180.78;;;10.55;100.00
64616;BME280;51027;42.162;24.754;2023-05-10T00:48:02;100207.41;;;10.74;100.00
64616;BME280;51027;42.162;24.754;2023-05-10T00:50:29;100200.31;;;10.76;100.00
64616;BME280;51027;42.162;24.754;2023-05-10T00:52:55;100197.06;;;10.68;100.00
64616;BME280;51027;42.162;24.754;2023-05-10T00:55:20;100201.88;;;10.82;100.00
64616;BME280;51027;42.162;24.754;2023-05-10T00:57:47;100199.97;;;10.87;100.00
64616;BME280;51027;42.162;24.754;2023-05-10T01:00:13;100215.97;;;10.81;100.00
64616;BME280;51027;42.162;24.754;2023-05-10T01:02:43;100209.75;;;10.83;100.00
64616;BME280;51027;42.162;24.754;2023-05-10T01:05:09;100195.22;;;10.70;100.00
64616;BME280;51027;42.162;24.754;2023-05-10T01:07:34;100209.94;;;10.77;100.00
64616;BME280;51027;42.162;24.754;2023-05-10T01:10:00;100204.09;;;10.67;100.00
64616;BME280;51027;42.162;24.754;2023-05-10T01:12:25;100202.47;;;10.63;100.00
64616;BME280;51027;42.162;24.754;2023-05-10T01:14:51;100207.69;;;10.65;100.00
64616;BME280;51027;42.162;24.754;2023-05-10T01:17:17;100210.22;;;10.68;100.00
64616;BME280;51027;42.162;24.754;2023-05-10T01:19:42;100209.47;;;10.64;100.00
64616;BME280;51027;42.162;24.754;2023-05-10T01:25:11;100208.31;;;10.45;100.00
64616;BME280;51027;42.162;24.754;2023-05-10T01:33:19;100215.16;;;10.51;100.00
64616;BME280;51027;42.162;24.754;2023-05-10T01:35:59;100212.44;;;10.54;100.00
64616;BME280;51027;42.162;24.754;2023-05-10T01:41:20;100207.00;;;10.58;100.00
64616;BME280;51027;42.162;24.754;2023-05-10T01:46:33;100206.63;;;10.43;100.00
64616;BME280;51027;42.162;24.754;2023-05-10T01:49:01;100207.16;;;10.54;100.00
64616;BME280;51027;42.162;24.754;2023-05-10T01:51:31;100188.22;;;10.43;100.00
64616;BME280;51027;42.162;24.754;2023-05-10T01:54:02;100204.81;;;10.45;100.00
64616;BME280;51027;42.162;24.754;2023-05-10T01:56:30;100204.94;;;10.40;100.00
64616;BME280;51027;42.162;24.754;2023-05-10T01:58:58;100198.91;;;10.36;100.00
64616;BME280;51027;42.162;24.754;2023-05-10T02:01:26;100213.63;;;10.44;100.00
64616;BME280;51027;42.162;24.754;2023-05-10T02:03:53;100200.72;;;10.34;100.00
64616;BME280;51027;42.162;24.754;2023-05-10T02:06:21;100200.69;;;10.36;100.00
64616;BME280;51027;42.162;24.754;2023-05-10T02:08:49;100213.94;;;10.33;100.00
64616;BME280;51027;42.162;24.754;2023-05-10T02:11:17;100201.75;;;10.29;100.00
64616;BME280;51027;42.162;24.754;2023-05-10T02:13:44;100213.63;;;10.13;100.00
64616;BME280;51027;42.162;24.754;2023-05-10T02:16:11;100220.19;;;10.29;100.00
64616;BME280;51027;42.162;24.754;2023-05-10T02:18:39;100220.06;;;10.33;100.00
64616;BME280;51027;42.162;24.754;2023-05-10T02:21:08;100217.28;;;10.38;100.00
64616;BME280;51027;42.162;24.754;2023-05-10T02:23:34;100222.56;;;10.38;100.00
64616;BME280;51027;42.162;24.754;2023-05-10T02:26:02;100223.63;;;10.31;100.00
64616;BME280;51027;42.162;24.754;2023-05-10T02:28:29;100218.03;;;10.43;100.00
64616;BME280;51027;42.162;24.754;2023-05-10T02:30:55;100222.50;;;10.39;100.00
64616;BME280;51027;42.162;24.754;2023-05-10T02:33:22;100220.44;;;10.20;100.00
64616;BME280;51027;42.162;24.754;2023-05-10T02:35:50;100222.78;;;10.30;100.00
64616;BME280;51027;42.162;24.754;2023-05-10T02:38:17;100188.84;;;10.20;100.00
64616;BME280;51027;42.162;24.754;2023-05-10T02:40:44;100222.44;;;10.43;100.00
64616;BME280;51027;42.162;24.754;2023-05-10T02:43:12;100219.69;;;10.46;100.00
64616;BME280;51027;42.162;24.754;2023-05-10T02:45:40;100208.53;;;10.37;100.00
64616;BME280;51027;42.162;24.754;2023-05-10T02:48:06;100220.50;;;10.48;100.00
64616;BME280;51027;42.162;24.754;2023-05-10T02:50:33;100219.75;;;10.44;100.00
64616;BME280;51027;42.162;24.754;2023-05-10T02:53:08;100216.38;;;10.39;100.00
64616;BME280;51027;42.162;24.754;2023-05-10T02:55:40;100224.28;;;10.39;100.00
64616;BME280;51027;42.162;24.754;2023-05-10T02:58:07;100208.94;;;10.24;100.00
64616;BME280;51027;42.162;24.754;2023-05-10T03:00:32;100215.84;;;10.28;100.00
64616;BME280;51027;42.162;24.754;2023-05-10T03:02:58;100202.06;;;10.18;100.00
64616;BME280;51027;42.162;24.754;2023-05-10T03:05:24;100221.16;;;10.26;100.00
64616;BME280;51027;42.162;24.754;2023-05-10T03:07:49;100224.75;;;10.24;100.00
64616;BME280;51027;42.162;24.754;2023-05-10T03:10:17;100209.94;;;10.18;100.00
64616;BME280;51027;42.162;24.754;2023-05-10T03:13:12;100226.53;;;10.23;100.00
64616;BME280;51027;42.162;24.754;2023-05-10T03:16:00;100223.16;;;10.17;100.00
64616;BME280;51027;42.162;24.754;2023-05-10T03:18:36;100228.25;;;10.24;100.00
64616;BME280;51027;42.162;24.754;2023-05-10T03:21:04;100222.00;;;10.27;100.00
64616;BME280;51027;42.162;24.754;2023-05-10T03:23:38;100223.75;;;10.28;100.00
64616;BME280;51027;42.162;24.754;2023-05-10T03:26:05;100220.19;;;10.29;100.00
64616;BME280;51027;42.162;24.754;2023-05-10T03:28:33;100225.63;;;10.21;100.00
64616;BME280;51027;42.162;24.754;2023-05-10T03:30:59;100220.97;;;10.01;100.00
64616;BME280;51027;42.162;24.754;2023-05-10T03:33:25;100234.03;;;10.04;100.00
64616;BME280;51027;42.162;24.754;2023-05-10T03:35:50;100238.31;;;10.08;100.00
64616;BME280;51027;42.162;24.754;2023-05-10T03:38:16;100240.69;;;10.18;100.00
64616;BME280;51027;42.162;24.754;2023-05-10T03:40:41;100235.22;;;10.25;100.00
64616;BME280;51027;42.162;24.754;2023-05-10T03:43:07;100240.41;;;10.28;100.00
64616;BME280;51027;42.162;24.754;2023-05-10T03:45:32;100238.66;;;10.27;100.00
64616;BME280;51027;42.162;24.754;2023-05-10T03:47:58;100245.88;;;10.19;100.00
64616;BME280;51027;42.162;24.754;2023-05-10T03:50:23;100252.75;;;10.26;100.00
64616;BME280;51027;42.162;24.754;2023-05-10T03:52:49;100224.94;;;10.16;100.00
64616;BME280;51027;42.162;24.754;2023-05-10T03:55:15;100242.97;;;10.30;100.00
64616;BME280;51027;42.162;24.754;2023-05-10T03:57:41;100244.38;;;10.12;100.00
64616;BME280;51027;42.162;24.754;2023-05-10T04:00:07;100254.41;;;10.29;100.00
64616;BME280;51027;42.162;24.754;2023-05-10T04:02:33;100249.84;;;10.35;100.00
64616;BME280;51027;42.162;24.754;2023-05-10T04:04:58;100265.09;;;10.24;100.00
64616;BME280;51027;42.162;24.754;2023-05-10T04:07:24;100265.00;;;10.27;100.00
64616;BME280;51027;42.162;24.754;2023-05-10T04:09:49;100259.56;;;10.33;100.00
64616;BME280;51027;42.162;24.754;2023-05-10T04:12:15;100259.47;;;10.36;100.00
64616;BME280;51027;42.162;24.754;2023-05-10T04:14:40;100264.00;;;10.31;100.00
64616;BME280;51027;42.162;24.754;2023-05-10T04:17:05;100262.06;;;10.38;100.00
64616;BME280;51027;42.162;24.754;2023-05-10T04:19:31;100264.69;;;10.38;100.00
64616;BME280;51027;42.162;24.754;2023-05-10T04:21:57;100251.63;;;10.35;100.00
64616;BME280;51027;42.162;24.754;2023-05-10T04:24:23;100261.28;;;10.34;100.00
64616;BME280;51027;42.162;24.754;2023-05-10T04:26:49;100260.22;;;10.40;100.00
64616;BME280;51027;42.162;24.754;2023-05-10T04:29:14;100264.56;;;10.43;100.00
64616;BME280;51027;42.162;24.754;2023-05-10T04:31:40;100261.41;;;10.59;100.00
64616;BME280;51027;42.162;24.754;2023-05-10T04:34:06;100272.44;;;10.72;100.00
64616;BME280;51027;42.162;24.754;2023-05-10T04:36:31;100260.13;;;10.73;100.00
64616;BME280;51027;42.162;24.754;2023-05-10T04:38:59;100257.38;;;10.77;100.00
64616;BME280;51027;42.162;24.754;2023-05-10T04:41:24;100276.50;;;10.84;100.00
64616;BME280;51027;42.162;24.754;2023-05-10T04:43:50;100277.91;;;10.66;100.00
64616;BME280;51027;42.162;24.754;2023-05-10T04:46:15;100281.25;;;10.71;100.00
64616;BME280;51027;42.162;24.754;2023-05-10T04:48:41;100279.56;;;10.68;100.00
64616;BME280;51027;42.162;24.754;2023-05-10T04:51:06;100268.22;;;10.66;100.00
64616;BME280;51027;42.162;24.754;2023-05-10T04:53:32;100271.94;;;10.59;100.00
64616;BME280;51027;42.162;24.754;2023-05-10T04:55:57;100275.03;;;10.74;100.00
64616;BME280;51027;42.162;24.754;2023-05-10T04:58:23;100271.34;;;10.79;100.00
64616;BME280;51027;42.162;24.754;2023-05-10T05:00:48;100273.03;;;10.52;100.00
64616;BME280;51027;42.162;24.754;2023-05-10T05:03:13;100272.28;;;10.49;100.00
64616;BME280;51027;42.162;24.754;2023-05-10T05:05:39;100277.16;;;10.61;100.00
64616;BME280;51027;42.162;24.754;2023-05-10T05:08:04;100287.44;;;10.70;100.00
64616;BME280;51027;42.162;24.754;2023-05-10T05:10:30;100266.31;;;10.72;100.00
64616;BME280;51027;42.162;24.754;2023-05-10T05:12:55;100279.53;;;10.98;100.00
64616;BME280;51027;42.162;24.754;2023-05-10T05:15:20;100281.16;;;11.04;100.00
64616;BME280;51027;42.162;24.754;2023-05-10T05:17:46;100266.03;;;11.09;100.00
64616;BME280;51027;42.162;24.754;2023-05-10T05:20:12;100277.31;;;11.14;100.00
64616;BME280;51027;42.162;24.754;2023-05-10T05:22:38;100277.75;;;11.27;100.00
64616;BME280;51027;42.162;24.754;2023-05-10T05:25:04;100274.31;;;11.24;100.00
64616;BME280;51027;42.162;24.754;2023-05-10T05:27:31;100271.59;;;11.00;100.00
64616;BME280;51027;42.162;24.754;2023-05-10T05:29:57;100274.13;;;11.03;100.00
64616;BME280;51027;42.162;24.754;2023-05-10T05:32:23;100277.31;;;11.12;100.00
64616;BME280;51027;42.162;24.754;2023-05-10T05:34:49;100263.97;;;11.18;100.00
64616;BME280;51027;42.162;24.754;2023-05-10T05:37:15;100269.34;;;11.15;100.00
64616;BME280;51027;42.162;24.754;2023-05-10T05:39:41;100268.56;;;11.12;100.00
64616;BME280;51027;42.162;24.754;2023-05-10T05:42:07;100267.28;;;11.23;100.00
64616;BME280;51027;42.162;24.754;2023-05-10T05:44:33;100270.53;;;11.05;100.00
64616;BME280;51027;42.162;24.754;2023-05-10T05:46:58;100255.88;;;10.96;100.00
64616;BME280;51027;42.162;24.754;2023-05-10T05:49:24;100278.19;;;11.13;100.00
64616;BME280;51027;42.162;24.754;2023-05-10T05:51:49;100278.00;;;11.19;100.00
64616;BME280;51027;42.162;24.754;2023-05-10T05:54:15;100287.16;;;11.34;100.00
64616;BME280;51027;42.162;24.754;2023-05-10T05:56:41;100290.53;;;11.39;100.00
64616;BME280;51027;42.162;24.754;2023-05-10T05:59:06;100295.00;;;11.37;100.00
64616;BME280;51027;42.162;24.754;2023-05-10T06:01:32;100291.44;;;11.38;100.00
64616;BME280;51027;42.162;24.754;2023-05-10T06:03:57;100295.31;;;11.28;100.00
64616;BME280;51027;42.162;24.754;2023-05-10T06:06:22;100277.25;;;11.15;100.00
64616;BME280;51027;42.162;24.754;2023-05-10T06:08:48;100289.16;;;11.27;100.00
64616;BME280;51027;42.162;24.754;2023-05-10T06:11:13;100289.13;;;11.29;100.00
64616;BME280;51027;42.162;24.754;2023-05-10T06:13:39;100273.41;;;11.25;100.00
64616;BME280;51027;42.162;24.754;2023-05-10T06:16:04;100290.00;;;11.56;100.00
64616;BME280;51027;42.162;24.754;2023-05-10T06:18:30;100291.53;;;11.61;100.00
64616;BME280;51027;42.162;24.754;2023-05-10T06:20:56;100285.56;;;11.56;100.00
64616;BME280;51027;42.162;24.754;2023-05-10T06:23:21;100299.47;;;11.88;100.00
64616;BME280;51027;42.162;24.754;2023-05-10T06:25:47;100302.16;;;11.86;100.00
64616;BME280;51027;42.162;24.754;2023-05-10T06:28:13;100307.53;;;11.83;100.00
64616;BME280;51027;42.162;24.754;2023-05-10T06:30:38;100303.84;;;11.89;100.00
64616;BME280;51027;42.162;24.754;2023-05-10T06:33:03;100300.53;;;11.82;100.00
64616;BME280;51027;42.162;24.754;2023-05-10T06:35:29;100300.13;;;11.68;100.00
64616;BME280;51027;42.162;24.754;2023-05-10T06:37:54;100282.50;;;11.68;100.00
64616;BME280;51027;42.162;24.754;2023-05-10T06:40:20;100267.03;;;11.31;100.00
64616;BME280;51027;42.162;24.754;2023-05-10T06:42:47;100309.38;;;11.81;100.00
64616;BME280;51027;42.162;24.754;2023-05-10T06:45:13;100309.41;;;11.53;100.00
64616;BME280;51027;42.162;24.754;2023-05-10T06:47:40;100307.22;;;11.66;100.00
64616;BME280;51027;42.162;24.754;2023-05-10T06:50:09;100305.66;;;11.60;100.00
64616;BME280;51027;42.162;24.754;2023-05-10T06:52:36;100315.44;;;11.83;100.00
64616;BME280;51027;42.162;24.754;2023-05-10T06:55:03;100313.41;;;11.91;100.00
64616;BME280;51027;42.162;24.754;2023-05-10T06:57:29;100301.59;;;11.76;100.00
64616;BME280;51027;42.162;24.754;2023-05-10T06:59:54;100284.06;;;11.74;100.00
64616;BME280;51027;42.162;24.754;2023-05-10T07:02:21;100301.94;;;11.92;100.00
64616;BME280;51027;42.162;24.754;2023-05-10T07:04:47;100307.63;;;12.30;100.00
64616;BME280;51027;42.162;24.754;2023-05-10T07:07:13;100284.66;;;12.08;100.00
64616;BME280;51027;42.162;24.754;2023-05-10T07:09:39;100308.03;;;12.19;100.00
64616;BME280;51027;42.162;24.754;2023-05-10T07:12:04;100287.34;;;12.07;100.00
64616;BME280;51027;42.162;24.754;2023-05-10T07:14:30;100301.16;;;12.38;100.00
64616;BME280;51027;42.162;24.754;2023-05-10T07:16:55;100289.03;;;12.33;100.00
64616;BME280;51027;42.162;24.754;2023-05-10T07:19:21;100307.03;;;12.47;100.00
64616;BME280;51027;42.162;24.754;2023-05-10T07:21:47;100311.72;;;12.62;100.00
64616;BME280;51027;42.162;24.754;2023-05-10T07:24:12;100293.63;;;12.51;100.00
64616;BME280;51027;42.162;24.754;2023-05-10T07:26:38;100313.19;;;12.47;100.00
64616;BME280;51027;42.162;24.754;2023-05-10T07:29:03;100312.13;;;12.75;100.00
64616;BME280;51027;42.162;24.754;2023-05-10T07:31:28;100318.25;;;12.75;100.00
64616;BME280;51027;42.162;24.754;2023-05-10T07:33:54;100317.84;;;12.86;100.00
64616;BME280;51027;42.162;24.754;2023-05-10T07:36:19;100317.44;;;12.96;100.00
64616;BME280;51027;42.162;24.754;2023-05-10T07:38:45;100301.97;;;13.09;100.00
64616;BME280;51027;42.162;24.754;2023-05-10T07:41:13;100309.31;;;13.24;100.00
64616;BME280;51027;42.162;24.754;2023-05-10T07:43:38;100311.66;;;13.32;100.00
64616;BME280;51027;42.162;24.754;2023-05-10T07:46:05;100310.44;;;13.41;100.00
64616;BME280;51027;42.162;24.754;2023-05-10T07:48:30;100302.59;;;13.38;100.00
64616;BME280;51027;42.162;24.754;2023-05-10T07:50:56;100321.84;;;13.63;100.00
64616;BME280;51027;42.162;24.754;2023-05-10T07:53:21;100318.53;;;13.36;100.00
64616;BME280;51027;42.162;24.754;2023-05-10T07:55:51;100312.16;;;13.42;100.00
64616;BME280;51027;42.162;24.754;2023-05-10T07:58:17;100324.25;;;13.47;100.00
64616;BME280;51027;42.162;24.754;2023-05-10T08:00:42;100335.66;;;13.49;100.00
64616;BME280;51027;42.162;24.754;2023-05-10T08:03:07;100323.59;;;13.42;100.00
64616;BME280;51027;42.162;24.754;2023-05-10T08:05:33;100330.72;;;13.40;100.00
64616;BME280;51027;42.162;24.754;2023-05-10T08:07:59;100324.09;;;13.30;100.00
64616;BME280;51027;42.162;24.754;2023-05-10T08:10:24;100337.97;;;13.35;100.00
64616;BME280;51027;42.162;24.754;2023-05-10T08:12:50;100335.53;;;13.07;100.00
64616;BME280;51027;42.162;24.754;2023-05-10T08:15:16;100324.31;;;13.24;100.00
64616;BME280;51027;42.162;24.754;2023-05-10T08:17:42;100335.59;;;13.29;100.00
64616;BME280;51027;42.162;24.754;2023-05-10T08:20:08;100341.97;;;13.23;100.00
64616;BME280;51027;42.162;24.754;2023-05-10T08:22:34;100321.88;;;13.18;100.00
64616;BME280;51027;42.162;24.754;2023-05-10T08:24:59;100343.53;;;13.29;100.00
64616;BME280;51027;42.162;24.754;2023-05-10T08:27:25;100338.84;;;13.36;100.00
64616;BME280;51027;42.162;24.754;2023-05-10T08:29:50;100338.66;;;13.40;100.00
64616;BME280;51027;42.162;24.754;2023-05-10T08:32:16;100341.38;;;13.39;100.00
64616;BME280;51027;42.162;24.754;2023-05-10T08:34:42;100336.50;;;13.50;100.00
64616;BME280;51027;42.162;24.754;2023-05-10T08:37:07;100338.09;;;13.54;100.00
64616;BME280;51027;42.162;24.754;2023-05-10T08:39:36;100337.50;;;13.68;100.00
64616;BME280;51027;42.162;24.754;2023-05-10T08:42:04;100343.34;;;13.76;100.00
64616;BME280;51027;42.162;24.754;2023-05-10T08:44:34;100340.56;;;13.79;100.00
64616;BME280;51027;42.162;24.754;2023-05-10T08:47:04;100332.59;;;14.01;100.00
64616;BME280;51027;42.162;24.754;2023-05-10T08:49:31;100333.66;;;13.97;100.00
64616;BME280;51027;42.162;24.754;2023-05-10T08:51:57;100333.31;;;13.84;100.00
64616;BME280;51027;42.162;24.754;2023-05-10T08:54:24;100294.31;;;13.67;100.00
64616;BME280;51027;42.162;24.754;2023-05-10T08:56:50;100332.38;;;14.05;100.00
64616;BME280;51027;42.162;24.754;2023-05-10T08:59:18;100331.66;;;14.22;100.00
64616;BME280;51027;42.162;24.754;2023-05-10T09:01:44;100329.22;;;13.97;100.00
64616;BME280;51027;42.162;24.754;2023-05-10T09:04:12;100328.81;;;13.86;100.00
64616;BME280;51027;42.162;24.754;2023-05-10T09:06:38;100320.59;;;13.72;100.00
64616;BME280;51027;42.162;24.754;2023-05-10T09:09:03;100330.28;;;13.93;100.00
64616;BME280;51027;42.162;24.754;2023-05-10T09:11:29;100332.47;;;13.83;100.00
64616;BME280;51027;42.162;24.754;2023-05-10T09:13:55;100335.28;;;13.79;100.00
64616;BME280;51027;42.162;24.754;2023-05-10T09:16:21;100317.34;;;13.65;100.00
64616;BME280;51027;42.162;24.754;2023-05-10T09:18:47;100329.88;;;13.82;100.00
64616;BME280;51027;42.162;24.754;2023-05-10T09:21:13;100316.50;;;14.05;100.00
64616;BME280;51027;42.162;24.754;2023-05-10T09:23:42;100322.47;;;14.31;100.00
64616;BME280;51027;42.162;24.754;2023-05-10T09:26:08;100307.75;;;14.24;100.00
64616;BME280;51027;42.162;24.754;2023-05-10T09:28:34;100301.97;;;14.34;100.00
64616;BME280;51027;42.162;24.754;2023-05-10T09:31:15;100303.47;;;14.40;100.00
64616;BME280;51027;42.162;24.754;2023-05-10T09:33:44;100313.56;;;14.32;100.00
64616;BME280;51027;42.162;24.754;2023-05-10T09:36:11;100308.06;;;14.57;100.00
64616;BME280;51027;42.162;24.754;2023-05-10T09:38:50;100303.94;;;14.50;100.00
64616;BME280;51027;42.162;24.754;2023-05-10T09:41:21;100306.75;;;14.47;100.00
64616;BME280;51027;42.162;24.754;2023-05-10T09:43:47;100286.72;;;14.39;78.90
64616;BME280;51027;42.162;24.754;2023-05-10T09:46:13;100297.53;;;14.35;79.32
64616;BME280;51027;42.162;24.754;2023-05-10T09:48:47;100293.22;;;14.53;79.45
64616;BME280;51027;42.162;24.754;2023-05-10T09:51:24;100297.97;;;14.84;77.18
64616;BME280;51027;42.162;24.754;2023-05-10T09:54:15;100297.53;;;14.93;75.90
64616;BME280;51027;42.162;24.754;2023-05-10T09:56:41;100291.53;;;15.25;75.06
64616;BME280;51027;42.162;24.754;2023-05-10T09:59:10;100290.34;;;15.14;74.22
64616;BME280;51027;42.162;24.754;2023-05-10T10:01:36;100283.97;;;14.99;75.37
64616;BME280;51027;42.162;24.754;2023-05-10T10:04:04;100285.69;;;15.00;75.40
64616;BME280;51027;42.162;24.754;2023-05-10T10:06:43;100273.59;;;14.94;75.19
64616;BME280;51027;42.162;24.754;2023-05-10T10:09:09;100270.16;;;15.28;74.81
64616;BME280;51027;42.162;24.754;2023-05-10T10:11:38;100276.56;;;15.59;74.13
64616;BME280;51027;42.162;24.754;2023-05-10T10:14:05;100254.84;;;15.51;74.28
64616;BME280;51027;42.162;24.754;2023-05-10T10:16:31;100256.91;;;15.80;73.66
64616;BME280;51027;42.162;24.754;2023-05-10T10:18:57;100266.03;;;15.57;73.91
64616;BME280;51027;42.162;24.754;2023-05-10T10:21:23;100278.19;;;15.63;73.42
64616;BME280;51027;42.162;24.754;2023-05-10T10:23:49;100249.94;;;15.26;73.70
64616;BME280;51027;42.162;24.754;2023-05-10T10:26:16;100278.94;;;15.82;73.44
64616;BME280;51027;42.162;24.754;2023-05-10T10:28:56;100264.09;;;15.44;74.56
64616;BME280;51027;42.162;24.754;2023-05-10T10:34:07;100270.66;;;15.71;72.58
64616;BME280;51027;42.162;24.754;2023-05-10T10:36:42;100272.75;;;16.17;70.60
64616;BME280;51027;42.162;24.754;2023-05-10T10:39:09;100276.75;;;15.73;69.44
64616;BME280;51027;42.162;24.754;2023-05-10T10:41:37;100264.97;;;15.79;70.17
64616;BME280;51027;42.162;24.754;2023-05-10T10:52:26;100255.19;;;15.97;65.75
64616;BME280;51027;42.162;24.754;2023-05-10T10:54:59;100266.28;;;16.38;64.28
64616;BME280;51027;42.162;24.754;2023-05-10T10:57:31;100262.44;;;16.10;64.79
64616;BME280;51027;42.162;24.754;2023-05-10T11:02:48;100250.50;;;16.35;63.05
64616;BME280;51027;42.162;24.754;2023-05-10T11:10:21;100249.28;;;16.89;63.63
64616;BME280;51027;42.162;24.754;2023-05-10T11:13:03;100235.72;;;17.10;62.31
64616;BME280;51027;42.162;24.754;2023-05-10T11:15:34;100247.06;;;16.97;62.16
64616;BME280;51027;42.162;24.754;2023-05-10T11:17:59;100247.47;;;16.74;62.51
64616;BME280;51027;42.162;24.754;2023-05-10T11:20:28;100238.53;;;16.59;63.07
64616;BME280;51027;42.162;24.754;2023-05-10T11:23:13;100247.44;;;16.09;65.35
64616;BME280;51027;42.162;24.754;2023-05-10T11:25:47;100238.66;;;16.40;64.87
64616;BME280;51027;42.162;24.754;2023-05-10T11:28:13;100232.31;;;16.43;63.37
64616;BME280;51027;42.162;24.754;2023-05-10T11:30:40;100222.03;;;16.04;61.96
64616;BME280;51027;42.162;24.754;2023-05-10T11:33:07;100226.84;;;16.46;61.64
64616;BME280;51027;42.162;24.754;2023-05-10T11:35:39;100221.16;;;16.69;62.99
64616;BME280;51027;42.162;24.754;2023-05-10T11:38:09;100228.00;;;16.74;61.08
64616;BME280;51027;42.162;24.754;2023-05-10T11:40:35;100224.97;;;16.95;60.20
64616;BME280;51027;42.162;24.754;2023-05-10T11:43:01;100214.34;;;17.41;57.51
64616;BME280;51027;42.162;24.754;2023-05-10T11:45:28;100208.69;;;17.32;56.63
64616;BME280;51027;42.162;24.754;2023-05-10T11:47:55;100216.47;;;17.20;56.03
64616;BME280;51027;42.162;24.754;2023-05-10T11:50:21;100211.94;;;17.37;57.40
64616;BME280;51027;42.162;24.754;2023-05-10T11:52:51;100225.50;;;17.78;57.07
64616;BME280;51027;42.162;24.754;2023-05-10T11:55:17;100220.09;;;17.94;54.95
64616;BME280;51027;42.162;24.754;2023-05-10T11:57:42;100223.28;;;17.70;53.26
64616;BME280;51027;42.162;24.754;2023-05-10T12:00:10;100204.66;;;17.24;55.57
64616;BME280;51027;42.162;24.754;2023-05-10T12:02:36;100221.41;;;16.96;57.63
64616;BME280;51027;42.162;24.754;2023-05-10T12:05:03;100198.63;;;16.75;59.59
64616;BME280;51027;42.162;24.754;2023-05-10T12:07:29;100221.16;;;17.61;59.34
64616;BME280;51027;42.162;24.754;2023-05-10T12:10:07;100213.16;;;17.61;58.16
64616;BME280;51027;42.162;24.754;2023-05-10T12:12:41;100206.66;;;17.51;58.16
64616;BME280;51027;42.162;24.754;2023-05-10T12:15:12;100207.09;;;17.43;54.69
64616;BME280;51027;42.162;24.754;2023-05-10T12:17:39;100208.16;;;17.41;56.99
64616;BME280;51027;42.162;24.754;2023-05-10T12:20:16;100213.38;;;17.42;57.25
64616;BME280;51027;42.162;24.754;2023-05-10T12:23:01;100212.72;;;16.93;58.32
64616;BME280;51027;42.162;24.754;2023-05-10T12:25:33;100203.69;;;16.95;60.18
64616;BME280;51027;42.162;24.754;2023-05-10T12:28:02;100202.97;;;16.45;61.15
64616;BME280;51027;42.162;24.754;2023-05-10T12:30:30;100190.28;;;17.13;58.60
64616;BME280;51027;42.162;24.754;2023-05-10T12:33:22;100195.09;;;17.36;59.02
64616;BME280;51027;42.162;24.754;2023-05-10T12:35:52;100188.63;;;16.80;61.56
64616;BME280;51027;42.162;24.754;2023-05-10T12:38:38;100184.28;;;16.30;60.49
64616;BME280;51027;42.162;24.754;2023-05-10T12:41:06;100197.56;;;16.30;61.10
64616;BME280;51027;42.162;24.754;2023-05-10T12:43:33;100180.34;;;16.37;60.57
64616;BME280;51027;42.162;24.754;2023-05-10T12:46:03;100166.81;;;16.58;59.02
64616;BME280;51027;42.162;24.754;2023-05-10T12:48:29;100174.94;;;16.55;59.81
64616;BME280;51027;42.162;24.754;2023-05-10T12:50:56;100155.31;;;16.41;58.45
64616;BME280;51027;42.162;24.754;2023-05-10T12:53:21;100167.25;;;16.82;59.41
64616;BME280;51027;42.162;24.754;2023-05-10T12:55:47;100147.06;;;17.23;58.61
64616;BME280;51027;42.162;24.754;2023-05-10T12:58:13;100156.13;;;17.94;57.23
64616;BME280;51027;42.162;24.754;2023-05-10T13:00:39;100149.06;;;18.07;55.04
64616;BME280;51027;42.162;24.754;2023-05-10T13:03:04;100136.97;;;18.16;55.97
64616;BME280;51027;42.162;24.754;2023-05-10T13:05:32;100132.28;;;18.33;56.87
64616;BME280;51027;42.162;24.754;2023-05-10T13:07:57;100141.88;;;18.36;55.83